Time;durP1;ratioP1;P1;durP2;ratioP2;P2;SDS_P1;SDS_P2;PMS_P1;PMS_P2;Temp;Humidity;BMP_temperature;BMP_pressure;BME280_temperature;BME280_humidity;BME280_pressure;Samples;Min_cycle;Max_cycle;Signal;HPM_P1;HPM_P2
2023/04/23 00:02:13;;;;;;;3.50;3.30;;;;;;;;;;4160309;28;20096;-55
2023/04/23 00:04:36;;;;;;;3.95;3.78;;;;;;;;;;4159914;28;20093;-56
2023/04/23 00:06:56;;;;;;;;;;;;;;;;;;4161744;28;20269;-56
2023/04/23 00:09:17;;;;;;;3.65;3.55;;;;;;;;;;4157974;28;19924;-56
2023/04/23 00:11:37;;;;;;;4.63;4.43;;;;;;;;;;4162043;28;20399;-56
2023/04/23 00:13:57;;;;;;;2.80;2.72;;;;;;;;;;4158907;28;20044;-55
2023/04/23 00:16:18;;;;;;;3.42;3.22;;;;;;;;;;4162429;28;20053;-55
2023/04/23 00:18:39;;;;;;;3.90;3.60;;;;;;;;;;4161306;28;20364;-56
2023/04/23 00:20:59;;;;;;;3.95;3.38;;;;;;;;;;4163142;28;20045;-56
2023/04/23 00:23:20;;;;;;;3.75;3.55;;;;;;;;;;4161715;28;20140;-55
2023/04/23 00:25:40;;;;;;;3.97;3.88;;;;;;;;;;4162667;28;20048;-56
2023/04/23 00:28:00;;;;;;;4.45;4.25;;;;;;;;;;4157125;28;20110;-55
2023/04/23 00:30:20;;;;;;;3.72;3.53;;;;;;;;;;4158386;28;20077;-56
2023/04/23 00:32:41;;;;;;;3.70;3.40;;;;;;;;;;4157701;28;20391;-56
2023/04/23 00:35:01;;;;;;;4.63;4.30;;;;;;;;;;4160315;28;20360;-56
2023/04/23 00:37:21;;;;;;;5.13;4.75;;;;;;;;;;4155566;28;20084;-56
2023/04/23 00:39:42;;;;;;;4.85;4.55;;;;;;;;;;4159670;28;20041;-55
2023/04/23 00:42:09;;;;;;;4.75;4.47;;;;;;;;;;4157344;28;20415;-55
2023/04/23 00:44:30;;;;;;;5.35;5.15;;;;;;;;;;4162315;28;20367;-56
2023/04/23 00:46:51;;;;;;;3.83;3.72;;;;;;;;;;4156190;28;20049;-56
2023/04/23 00:49:11;;;;;;;4.18;3.85;;;;;;;;;;4163876;28;20060;-55
2023/04/23 00:51:31;;;;;;;4.25;4.03;;;;;;;;;;4157006;28;20403;-55
2023/04/23 00:53:52;;;;;;;4.15;3.95;;;;;;;;;;4160724;28;20045;-56
2023/04/23 00:56:12;;;;;;;5.25;4.50;;;;;;;;;;4161494;28;20048;-56
2023/04/23 00:58:32;;;;;;;4.03;3.83;;;;;;;;;;4165616;28;20073;-56
2023/04/23 01:00:53;;;;;;;3.83;3.72;;;;;;;;;;4158921;28;20053;-56
2023/04/23 01:03:13;;;;;;;4.25;4.10;;;;;;;;;;4213320;22;20123;-80
2023/04/23 01:05:34;;;;;;;5.03;4.85;;;;;;;;;;4189095;28;20056;-80
2023/04/23 01:07:55;;;;;;;4.82;4.63;;;;;;;;;;4190984;28;20064;-80
2023/04/23 01:10:15;;;;;;;4.20;4.00;;;;;;;;;;4211301;28;20120;-80
2023/04/23 01:12:35;;;;;;;4.20;4.10;;;;;;;;;;4199358;28;20048;-80
2023/04/23 01:14:56;;;;;;;4.43;4.22;;;;;;;;;;4207943;28;20048;-80
2023/04/23 01:17:16;;;;;;;3.70;3.60;;;;;;;;;;4196710;28;20094;-80
2023/04/23 01:19:36;;;;;;;4.75;4.65;;;;;;;;;;4211642;28;20090;-80
2023/04/23 01:22:00;;;;;;;3.13;3.13;;;;;;;;;;4214319;28;20104;-80
2023/04/23 01:24:20;;;;;;;4.18;4.13;;;;;;;;;;4208529;28;20039;-80
2023/04/23 01:26:40;;;;;;;4.72;4.53;;;;;;;;;;4184636;28;20076;-80
2023/04/23 01:29:01;;;;;;;6.18;4.57;;;;;;;;;;4204365;28;20055;-80
2023/04/23 01:31:22;;;;;;;3.83;3.72;;;;;;;;;;4201685;28;20047;-80
2023/04/23 01:33:43;;;;;;;4.25;4.15;;;;;;;;;;4209532;28;20046;-80
2023/04/23 01:36:03;;;;;;;4.80;4.57;;;;;;;;;;4208263;28;20377;-80
2023/04/23 01:38:25;;;;;;;3.45;3.35;;;;;;;;;;4205469;28;20082;-80
2023/04/23 01:40:45;;;;;;;4.45;4.35;;;;;;;;;;4210963;28;20083;-80
2023/04/23 01:43:07;;;;;;;4.55;4.45;;;;;;;;;;4213503;28;20381;-80
2023/04/23 01:45:28;;;;;;;5.03;4.63;;;;;;;;;;4212234;28;20084;-80
2023/04/23 01:47:48;;;;;;;5.15;4.70;;;;;;;;;;4209982;28;20048;-80
2023/04/23 01:50:09;;;;;;;4.95;4.85;;;;;;;;;;4211486;28;20078;-80
2023/04/23 01:52:29;;;;;;;4.15;4.05;;;;;;;;;;4197142;28;20071;-80
2023/04/23 01:54:50;;;;;;;3.95;3.78;;;;;;;;;;4192758;28;20107;-80
2023/04/23 01:57:10;;;;;;;5.22;5.03;;;;;;;;;;4208390;28;20078;-80
2023/04/23 01:59:31;;;;;;;3.97;3.88;;;;;;;;;;4208249;28;20060;-80
2023/04/23 02:01:51;;;;;;;4.40;4.20;;;;;;;;;;4203208;28;20044;-80
2023/04/23 02:04:12;;;;;;;5.55;5.38;;;;;;;;;;4206563;28;20051;-80
2023/04/23 02:06:33;;;;;;;4.75;4.65;;;;;;;;;;4207199;28;20104;-80
2023/04/23 02:08:53;;;;;;;4.75;4.65;;;;;;;;;;4204567;28;20051;-79
2023/04/23 02:11:13;;;;;;;4.18;4.00;;;;;;;;;;4210411;28;20258;-80
2023/04/23 02:13:33;;;;;;;4.97;4.88;;;;;;;;;;4197663;28;20087;-80
2023/04/23 02:15:53;;;;;;;4.63;4.43;;;;;;;;;;4210180;28;20051;-79
2023/04/23 02:18:14;;;;;;;4.40;4.20;;;;;;;;;;4206890;28;20047;-80
2023/04/23 02:20:37;;;;;;;4.95;4.85;;;;;;;;;;4212800;28;20055;-80
2023/04/23 02:22:57;;;;;;;4.32;4.13;;;;;;;;;;4197547;28;20363;-80
2023/04/23 02:25:20;;;;;;;4.72;4.63;;;;;;;;;;4181550;28;20252;-80
2023/04/23 02:27:41;;;;;;;4.35;4.25;;;;;;;;;;4212393;28;20046;-80
2023/04/23 02:30:01;;;;;;;4.13;4.03;;;;;;;;;;4186224;28;20063;-80
2023/04/23 02:32:21;;;;;;;4.65;4.55;;;;;;;;;;4204463;28;20063;-80
2023/04/23 02:34:42;;;;;;;3.60;3.40;;;;;;;;;;4202408;28;20055;-80
2023/04/23 02:37:06;;;;;;;4.55;4.45;;;;;;;;;;4212895;28;20147;-79
2023/04/23 02:39:25;;;;;;;3.97;3.88;;;;;;;;;;4200460;28;20048;-80
2023/04/23 02:41:46;;;;;;;4.38;4.28;;;;;;;;;;4202631;28;20362;-80
2023/04/23 02:44:06;;;;;;;4.05;3.95;;;;;;;;;;4195634;28;20040;-79
2023/04/23 02:46:26;;;;;;;4.28;4.00;;;;;;;;;;4206284;28;20270;-80
2023/04/23 02:48:46;;;;;;;4.50;4.40;;;;;;;;;;4182609;28;20049;-79
2023/04/23 02:51:08;;;;;;;3.88;3.78;;;;;;;;;;4193321;28;20109;-79
2023/04/23 02:53:28;;;;;;;4.35;4.22;;;;;;;;;;4196108;28;20089;-80
2023/04/23 02:55:48;;;;;;;3.80;3.70;;;;;;;;;;4206487;28;20146;-80
2023/04/23 02:58:09;;;;;;;4.35;4.25;;;;;;;;;;4204266;28;20043;-79
2023/04/23 03:00:30;;;;;;;4.35;4.25;;;;;;;;;;4199267;28;20048;-80
2023/04/23 03:02:51;;;;;;;4.30;4.10;;;;;;;;;;4200177;28;20082;-79
2023/04/23 03:05:11;;;;;;;4.22;4.03;;;;;;;;;;4211897;28;20102;-79
2023/04/23 03:07:32;;;;;;;3.78;3.67;;;;;;;;;;4193548;28;20063;-80
2023/04/23 03:09:52;;;;;;;4.00;3.90;;;;;;;;;;4182459;28;20383;-79
2023/04/23 03:12:12;;;;;;;4.15;4.05;;;;;;;;;;4211921;28;20078;-80
2023/04/23 03:14:32;;;;;;;4.50;4.50;;;;;;;;;;4213631;28;20047;-79
2023/04/23 03:16:52;;;;;;;5.05;4.75;;;;;;;;;;4205889;28;20051;-79
2023/04/23 03:19:12;;;;;;;7.93;7.43;;;;;;;;;;4208257;28;20334;-80
2023/04/23 03:21:33;;;;;;;5.55;5.35;;;;;;;;;;4199807;28;20259;-79
2023/04/23 03:23:53;;;;;;;4.95;4.85;;;;;;;;;;4211577;28;20231;-80
2023/04/23 03:26:13;;;;;;;3.95;3.95;;;;;;;;;;4194326;28;20124;-79
2023/04/23 03:28:34;;;;;;;5.65;5.25;;;;;;;;;;4212195;28;20082;-79
2023/04/23 03:30:54;;;;;;;4.50;4.40;;;;;;;;;;4202553;28;20423;-80
2023/04/23 03:33:15;;;;;;;4.72;4.63;;;;;;;;;;4202166;28;20051;-79
2023/04/23 03:35:35;;;;;;;5.63;5.53;;;;;;;;;;4206393;28;20079;-79
2023/04/23 03:37:55;;;;;;;4.90;4.80;;;;;;;;;;4200303;28;20040;-80
2023/04/23 03:40:15;;;;;;;4.75;4.63;;;;;;;;;;4204590;28;20086;-80
2023/04/23 03:42:36;;;;;;;5.35;5.25;;;;;;;;;;4201450;28;20071;-79
2023/04/23 03:44:56;;;;;;;5.40;5.15;;;;;;;;;;4208427;28;20066;-79
2023/04/23 03:47:17;;;;;;;5.20;5.10;;;;;;;;;;4209617;28;20108;-80
2023/04/23 03:49:37;;;;;;;5.28;5.10;;;;;;;;;;4196974;28;20149;-79
2023/04/23 03:51:57;;;;;;;5.85;5.68;;;;;;;;;;4207410;28;20098;-80
2023/04/23 03:54:18;;;;;;;4.93;4.82;;;;;;;;;;4196435;28;20116;-80
2023/04/23 03:56:38;;;;;;;5.57;5.47;;;;;;;;;;4210593;28;20091;-79
2023/04/23 03:58:59;;;;;;;5.05;4.93;;;;;;;;;;4184235;28;20056;-80
2023/04/23 04:01:19;;;;;;;5.78;5.68;;;;;;;;;;4210236;28;20059;-80
2023/04/23 04:03:39;;;;;;;5.28;5.18;;;;;;;;;;4206904;28;20106;-79
2023/04/23 04:05:59;;;;;;;4.78;4.68;;;;;;;;;;4208423;28;20048;-80
2023/04/23 04:08:21;;;;;;;5.13;5.03;;;;;;;;;;4197427;28;20134;-79
2023/04/23 04:10:41;;;;;;;4.65;4.55;;;;;;;;;;4212386;28;20054;-79
2023/04/23 04:13:01;;;;;;;5.63;5.35;;;;;;;;;;4209532;28;20370;-79
2023/04/23 04:15:22;;;;;;;5.97;5.88;;;;;;;;;;4195724;28;20044;-79
2023/04/23 04:17:44;;;;;;;6.22;5.72;;;;;;;;;;4207661;28;20051;-79
2023/04/23 04:20:07;;;;;;;7.13;6.93;;;;;;;;;;4200528;28;20235;-79
2023/04/23 04:22:27;;;;;;;5.40;5.30;;;;;;;;;;4212553;28;20051;-79
2023/04/23 04:24:47;;;;;;;4.78;4.68;;;;;;;;;;4204699;28;20052;-80
2023/04/23 04:27:08;;;;;;;4.30;4.10;;;;;;;;;;4209872;28;20047;-79
2023/04/23 04:29:29;;;;;;;4.25;3.97;;;;;;;;;;4200809;28;20094;-79
2023/04/23 04:31:50;;;;;;;4.43;4.32;;;;;;;;;;4203111;28;20071;-79
2023/04/23 04:34:13;;;;;;;4.75;4.65;;;;;;;;;;4208236;28;20069;-79
2023/04/23 04:36:34;;;;;;;4.57;4.47;;;;;;;;;;4201020;28;20048;-79
2023/04/23 04:38:57;;;;;;;5.07;4.97;;;;;;;;;;4205066;28;20055;-80
2023/04/23 04:41:18;;;;;;;5.10;5.00;;;;;;;;;;4205749;28;20117;-79
2023/04/23 04:43:40;;;;;;;4.18;4.07;;;;;;;;;;4195951;28;20453;-80
2023/04/23 04:46:00;;;;;;;4.32;4.22;;;;;;;;;;4210842;28;20047;-79
2023/04/23 04:48:21;;;;;;;4.72;4.63;;;;;;;;;;4207626;28;20078;-79
2023/04/23 04:50:41;;;;;;;5.47;5.28;;;;;;;;;;4208045;28;20303;-80
2023/04/23 04:53:01;;;;;;;4.30;4.20;;;;;;;;;;4209426;28;20104;-80
2023/04/23 04:55:22;;;;;;;4.30;4.20;;;;;;;;;;4209556;28;20067;-80
2023/04/23 04:57:42;;;;;;;4.60;4.30;;;;;;;;;;4195832;28;20055;-79
2023/04/23 05:00:18;;;;;;;4.53;4.43;;;;;;;;;;4197684;28;20086;-79
2023/04/23 05:02:39;;;;;;;5.47;5.18;;;;;;;;;;4181502;28;20080;-79
2023/04/23 05:04:59;;;;;;;5.43;5.22;;;;;;;;;;4205318;28;20052;-80
2023/04/23 05:07:20;;;;;;;4.25;4.15;;;;;;;;;;4195087;28;20043;-79
2023/04/23 05:09:40;;;;;;;5.03;4.93;;;;;;;;;;4191912;28;20091;-79
2023/04/23 05:12:06;;;;;;;5.05;4.68;;;;;;;;;;4183599;28;20075;-79
2023/04/23 05:14:26;;;;;;;5.15;4.95;;;;;;;;;;4197583;28;20078;-80
2023/04/23 05:16:46;;;;;;;4.78;4.68;;;;;;;;;;4208573;28;20107;-79
2023/04/23 05:19:07;;;;;;;4.65;4.45;;;;;;;;;;4213548;28;20246;-80
2023/04/23 05:21:27;;;;;;;4.68;4.55;;;;;;;;;;4194955;28;20131;-80
2023/04/23 05:23:48;;;;;;;5.57;5.38;;;;;;;;;;4215389;28;20241;-79
2023/04/23 05:26:08;;;;;;;5.70;5.60;;;;;;;;;;4211688;28;20048;-79
2023/04/23 05:28:29;;;;;;;5.95;5.70;;;;;;;;;;4197748;28;20071;-79
2023/04/23 05:30:49;;;;;;;3.88;3.78;;;;;;;;;;4194200;28;20322;-80
2023/04/23 05:33:11;;;;;;;5.85;5.75;;;;;;;;;;4203611;28;20354;-79
2023/04/23 05:35:31;;;;;;;4.40;4.30;;;;;;;;;;4203670;28;20052;-79
2023/04/23 05:37:51;;;;;;;5.30;5.20;;;;;;;;;;4210028;28;20083;-79
2023/04/23 05:40:12;;;;;;;5.20;5.10;;;;;;;;;;4208844;28;20047;-80
2023/04/23 05:42:32;;;;;;;5.38;5.25;;;;;;;;;;4205723;28;20042;-80
2023/04/23 05:44:52;;;;;;;6.50;6.22;;;;;;;;;;4209957;28;20392;-80
2023/04/23 05:47:13;;;;;;;4.75;4.65;;;;;;;;;;4215532;28;20047;-79
2023/04/23 05:49:33;;;;;;;4.95;4.85;;;;;;;;;;4200873;28;20039;-80
2023/04/23 05:51:54;;;;;;;4.97;4.15;;;;;;;;;;4197571;28;20051;-80
2023/04/23 05:54:14;;;;;;;5.20;4.90;;;;;;;;;;4203183;28;20047;-80
2023/04/23 05:56:34;;;;;;;4.70;4.60;;;;;;;;;;4182311;28;20048;-80
2023/04/23 05:58:54;;;;;;;5.57;5.47;;;;;;;;;;4208806;28;20051;-80
2023/04/23 06:01:15;;;;;;;5.65;5.32;;;;;;;;;;4213227;28;20146;-80
2023/04/23 06:03:36;;;;;;;4.80;4.70;;;;;;;;;;4206363;28;20082;-80
2023/04/23 06:05:56;;;;;;;5.38;5.28;;;;;;;;;;4195185;28;20090;-80
2023/04/23 06:08:19;;;;;;;5.45;5.10;;;;;;;;;;4196131;28;20243;-80
2023/04/23 06:10:39;;;;;;;5.90;5.37;;;;;;;;;;4196337;28;20293;-86
2023/04/23 06:12:59;;;;;;;47.88;7.93;;;;;;;;;;4181713;28;20048;-82
2023/04/23 06:15:20;;;;;;;4.68;4.30;;;;;;;;;;4200488;28;20043;-84
2023/04/23 06:17:40;;;;;;;5.47;4.53;;;;;;;;;;4197346;28;20044;-85
2023/04/23 06:20:00;;;;;;;60.70;15.35;;;;;;;;;;4206484;28;20112;-79
2023/04/23 06:22:20;;;;;;;4.72;4.40;;;;;;;;;;4194007;28;20290;-79
2023/04/23 06:24:40;;;;;;;5.13;5.03;;;;;;;;;;4218278;28;20050;-80
2023/04/23 06:27:01;;;;;;;5.10;5.00;;;;;;;;;;4194729;28;20047;-79
2023/04/23 06:29:21;;;;;;;41.85;12.48;;;;;;;;;;4203044;28;20389;-79
2023/04/23 06:31:41;;;;;;;7.20;6.80;;;;;;;;;;4193968;28;20052;-79
2023/04/23 06:34:02;;;;;;;6.30;6.13;;;;;;;;;;4191544;28;20071;-79
2023/04/23 06:36:22;;;;;;;6.93;6.40;;;;;;;;;;4183384;28;20275;-79
2023/04/23 06:38:43;;;;;;;7.30;6.95;;;;;;;;;;4195100;28;20043;-79
2023/04/23 06:41:04;;;;;;;6.55;6.35;;;;;;;;;;4211768;28;20046;-79
2023/04/23 06:43:25;;;;;;;6.10;5.88;;;;;;;;;;4206360;28;20103;-79
2023/04/23 06:45:45;;;;;;;6.05;5.85;;;;;;;;;;4198712;28;20059;-79
2023/04/23 06:48:06;;;;;;;5.65;5.45;;;;;;;;;;4202886;28;20047;-79
2023/04/23 06:50:27;;;;;;;6.18;5.85;;;;;;;;;;4208656;28;20067;-79
2023/04/23 06:52:47;;;;;;;5.95;5.65;;;;;;;;;;4203853;28;20227;-80
2023/04/23 06:55:08;;;;;;;6.25;5.90;;;;;;;;;;4185665;28;20367;-80
2023/04/23 06:57:28;;;;;;;7.93;4.80;;;;;;;;;;4189342;28;20363;-79
2023/04/23 06:59:49;;;;;;;6.82;6.20;;;;;;;;;;4206624;28;20039;-79
2023/04/23 07:02:09;;;;;;;28.13;10.27;;;;;;;;;;4195326;28;20362;-80
2023/04/23 07:04:29;;;;;;;5.03;4.80;;;;;;;;;;4202578;28;20052;-80
2023/04/23 07:06:50;;;;;;;4.63;4.43;;;;;;;;;;4204376;28;20043;-80
2023/04/23 07:09:11;;;;;;;4.60;4.50;;;;;;;;;;4204976;28;20393;-80
2023/04/23 07:11:33;;;;;;;4.72;4.57;;;;;;;;;;4189220;28;20088;-80
2023/04/23 07:13:53;;;;;;;3.90;3.80;;;;;;;;;;4203487;28;20300;-80
2023/04/23 07:16:14;;;;;;;4.22;3.92;;;;;;;;;;4210880;28;20362;-80
2023/04/23 07:18:34;;;;;;;4.78;4.45;;;;;;;;;;4204316;28;20090;-80
2023/04/23 07:20:54;;;;;;;3.92;3.83;;;;;;;;;;4206331;28;20059;-80
2023/04/23 07:23:15;;;;;;;4.43;4.32;;;;;;;;;;4214527;28;20044;-80
2023/04/23 07:25:35;;;;;;;3.58;3.45;;;;;;;;;;4218723;28;20043;-80
2023/04/23 07:27:55;;;;;;;4.35;4.05;;;;;;;;;;4214342;28;20059;-80
2023/04/23 07:30:16;;;;;;;4.03;3.67;;;;;;;;;;4212723;28;20116;-79
2023/04/23 07:32:36;;;;;;;4.10;4.00;;;;;;;;;;4219732;28;20047;-80
2023/04/23 07:34:56;;;;;;;3.80;3.60;;;;;;;;;;4207434;28;20074;-80
2023/04/23 07:37:16;;;;;;;3.95;3.75;;;;;;;;;;4211681;28;20250;-80
2023/04/23 07:39:37;;;;;;;3.97;3.85;;;;;;;;;;4200861;28;20051;-80
2023/04/23 07:41:57;;;;;;;4.20;4.10;;;;;;;;;;4212661;28;20103;-80
2023/04/23 07:44:18;;;;;;;2.90;2.90;;;;;;;;;;4196045;28;20109;-80
2023/04/23 07:46:38;;;;;;;3.45;3.25;;;;;;;;;;4210709;28;20089;-80
2023/04/23 07:48:58;;;;;;;3.60;3.50;;;;;;;;;;4194505;28;20056;-79
2023/04/23 07:51:21;;;;;;;3.38;3.38;;;;;;;;;;4180128;28;20095;-78
2023/04/23 07:53:41;;;;;;;3.73;3.40;;;;;;;;;;4209656;28;20059;-78
2023/04/23 07:56:01;;;;;;;3.60;3.50;;;;;;;;;;4210517;28;20145;-78
2023/04/23 07:58:22;;;;;;;3.25;3.15;;;;;;;;;;4198363;28;20083;-78
2023/04/23 08:00:42;;;;;;;3.28;3.17;;;;;;;;;;4210614;28;20055;-78
2023/04/23 08:03:03;;;;;;;4.68;4.32;;;;;;;;;;4209980;28;20071;-78
2023/04/23 08:05:25;;;;;;;4.00;3.90;;;;;;;;;;4206708;28;20236;-78
2023/04/23 08:07:45;;;;;;;3.50;3.40;;;;;;;;;;4203667;28;20063;-78
2023/04/23 08:10:06;;;;;;;4.07;3.88;;;;;;;;;;4212132;28;20081;-78
2023/04/23 08:12:26;;;;;;;3.40;3.40;;;;;;;;;;4198305;28;20108;-78
2023/04/23 08:14:47;;;;;;;3.15;3.10;;;;;;;;;;4195670;28;20075;-78
2023/04/23 08:17:07;;;;;;;4.57;4.38;;;;;;;;;;4208644;28;20108;-78
2023/04/23 08:19:31;;;;;;;3.30;3.20;;;;;;;;;;4185104;28;20090;-78
2023/04/23 08:21:51;;;;;;;3.80;3.50;;;;;;;;;;4194492;28;20387;-78
2023/04/23 08:24:11;;;;;;;3.42;3.33;;;;;;;;;;4178425;28;20390;-78
2023/04/23 08:26:32;;;;;;;3.55;3.45;;;;;;;;;;4217706;28;20086;-78
2023/04/23 08:28:52;;;;;;;3.08;2.97;;;;;;;;;;4197326;28;20104;-78
2023/04/23 08:31:15;;;;;;;3.42;3.22;;;;;;;;;;4198155;28;20454;-78
2023/04/23 08:33:46;;;;;;;2.20;2.10;;;;;;;;;;4198372;28;20052;-85
2023/04/23 08:36:07;;;;;;;2.97;2.88;;;;;;;;;;4181870;28;20063;-79
2023/04/23 08:38:27;;;;;;;3.30;3.20;;;;;;;;;;4197870;28;20550;-79
2023/04/23 08:40:48;;;;;;;3.53;2.60;;;;;;;;;;4202755;28;20083;-79
2023/04/23 08:43:19;;;;;;;2.53;2.42;;;;;;;;;;4204106;28;20082;-79
2023/04/23 08:45:43;;;;;;;3.17;2.97;;;;;;;;;;4183873;28;20318;-79
2023/04/23 08:48:04;;;;;;;3.22;2.50;;;;;;;;;;4201302;28;20047;-79
2023/04/23 08:50:24;;;;;;;3.28;2.97;;;;;;;;;;4211304;28;20058;-79
2023/04/23 08:53:05;;;;;;;2.30;2.10;;;;;;;;;;4193134;28;20048;-79
2023/04/23 08:55:25;;;;;;;1.92;1.83;;;;;;;;;;4212011;28;20078;-79
2023/04/23 08:57:46;;;;;;;2.20;2.20;;;;;;;;;;4209736;28;20593;-79
2023/04/23 09:00:10;;;;;;;2.05;1.88;;;;;;;;;;4210271;28;20056;-79
2023/04/23 09:02:30;;;;;;;2.40;1.70;;;;;;;;;;4210256;28;20287;-79
2023/04/23 09:04:53;;;;;;;2.05;1.95;;;;;;;;;;4215624;28;20078;-80
2023/04/23 09:07:16;;;;;;;2.33;2.10;;;;;;;;;;4206188;28;20051;-79
2023/04/23 09:09:40;;;;;;;1.85;1.85;;;;;;;;;;4208318;28;20089;-80
2023/04/23 09:12:01;;;;;;;1.52;1.35;;;;;;;;;;4191398;28;20134;-80
2023/04/23 09:14:24;;;;;;;1.70;1.67;;;;;;;;;;4204029;28;20086;-79
2023/04/23 09:16:44;;;;;;;25.08;2.72;;;;;;;;;;4182060;28;20048;-79
2023/04/23 09:19:04;;;;;;;6.53;1.98;;;;;;;;;;4211485;28;20056;-79
2023/04/23 09:21:24;;;;;;;3.47;1.33;;;;;;;;;;4191684;28;20068;-79
2023/04/23 09:23:44;;;;;;;1.77;1.48;;;;;;;;;;4199064;28;20287;-79
2023/04/23 09:26:08;;;;;;;1.27;1.20;;;;;;;;;;4210133;28;20243;-79
2023/04/23 09:28:35;;;;;;;1.20;1.20;;;;;;;;;;4209798;28;20365;-79
2023/04/23 09:30:55;;;;;;;1.17;1.10;;;;;;;;;;4213112;28;20051;-79
2023/04/23 09:33:16;;;;;;;1.52;1.30;;;;;;;;;;4190536;28;20051;-80
2023/04/23 09:35:37;;;;;;;1.70;1.60;;;;;;;;;;4203385;28;20047;-79
2023/04/23 09:38:04;;;;;;;2.00;1.90;;;;;;;;;;4206914;28;20051;-80
2023/04/23 09:40:26;;;;;;;1.00;1.00;;;;;;;;;;4213051;28;20055;-80
2023/04/23 09:42:48;;;;;;;1.00;1.00;;;;;;;;;;4206506;28;20080;-79
2023/04/23 09:45:11;;;;;;;1.00;1.00;;;;;;;;;;4196832;28;20287;-80
2023/04/23 09:47:32;;;;;;;0.90;0.90;;;;;;;;;;4196582;28;20051;-80
2023/04/23 09:49:53;;;;;;;2.10;1.42;;;;;;;;;;4215722;28;20048;-80
2023/04/23 09:52:13;;;;;;;2.05;1.17;;;;;;;;;;4199131;28;20050;-79
2023/04/23 09:54:33;;;;;;;1.10;1.10;;;;;;;;;;4199935;28;20044;-80
2023/04/23 09:56:59;;;;;;;2.75;1.20;;;;;;;;;;4196074;28;20056;-80
2023/04/23 09:59:27;;;;;;;1.13;1.13;;;;;;;;;;4203087;28;20068;-80
2023/04/23 10:02:06;;;;;;;1.40;1.40;;;;;;;;;;4209945;28;20126;-80
2023/04/23 10:04:27;;;;;;;1.13;1.13;;;;;;;;;;4211016;28;20078;-80
2023/04/23 10:06:57;;;;;;;1.95;1.10;;;;;;;;;;4197420;28;20068;-80
2023/04/23 10:09:37;;;;;;;1.30;1.30;;;;;;;;;;4203332;28;20063;-80
2023/04/23 10:11:58;;;;;;;1.30;1.17;;;;;;;;;;4205147;28;20086;-79
2023/04/23 10:14:19;;;;;;;1.85;1.10;;;;;;;;;;4201718;28;20147;-80
2023/04/23 10:16:42;;;;;;;2.28;0.90;;;;;;;;;;4208430;28;20055;-86
2023/04/23 10:19:10;;;;;;;1.00;1.00;;;;;;;;;;4186068;28;20277;-86
2023/04/23 10:21:32;;;;;;;1.00;1.00;;;;;;;;;;4197517;28;20100;-87
2023/04/23 10:24:13;;;;;;;0.90;0.90;;;;;;;;;;4210528;28;20046;-86
2023/04/23 10:26:34;;;;;;;1.00;1.00;;;;;;;;;;4180169;28;20087;-87
2023/04/23 10:28:56;;;;;;;0.90;0.90;;;;;;;;;;4195606;28;20075;-86
2023/04/23 10:31:18;;;;;;;0.90;0.90;;;;;;;;;;4195032;28;20043;-86
2023/04/23 10:33:39;;;;;;;1.02;0.90;;;;;;;;;;4207707;28;20374;-86
2023/04/23 10:36:16;;;;;;;1.70;0.93;;;;;;;;;;4193627;28;20068;-86
2023/04/23 10:38:36;;;;;;;0.90;0.90;;;;;;;;;;4206764;28;20047;-86
2023/04/23 10:41:17;;;;;;;0.90;0.90;;;;;;;;;;4207459;28;20070;-86
2023/04/23 10:43:40;;;;;;;1.00;1.00;;;;;;;;;;4196437;28;20078;-87
2023/04/23 10:46:01;;;;;;;0.90;0.90;;;;;;;;;;4195868;28;20116;-86
2023/04/23 10:48:21;;;;;;;1.00;1.00;;;;;;;;;;4184553;28;20418;-87
2023/04/23 10:50:43;;;;;;;1.00;1.00;;;;;;;;;;4196356;28;20291;-87
2023/04/23 10:53:24;;;;;;;1.20;1.20;;;;;;;;;;4202662;28;20086;-87
2023/04/23 10:55:44;;;;;;;1.48;1.10;;;;;;;;;;4198729;28;20086;-87
2023/04/23 10:58:06;;;;;;;1.50;1.40;;;;;;;;;;4205278;28;20365;-87
2023/04/23 11:00:27;;;;;;;1.15;1.00;;;;;;;;;;4192148;28;20056;-87
2023/04/23 11:02:50;;;;;;;1.00;1.00;;;;;;;;;;4199725;28;20047;-87
2023/04/23 11:05:11;;;;;;;3.13;1.00;;;;;;;;;;4185213;28;20091;-87
2023/04/23 11:07:32;;;;;;;0.90;0.90;;;;;;;;;;4206929;28;20055;-88
2023/04/23 11:09:53;;;;;;;0.95;0.95;;;;;;;;;;4197167;28;20099;-87
2023/04/23 11:12:14;;;;;;;1.00;1.00;;;;;;;;;;4198332;28;20086;-87
2023/04/23 11:14:35;;;;;;;1.00;1.00;;;;;;;;;;4211522;28;20050;-87
2023/04/23 11:16:55;;;;;;;0.95;0.95;;;;;;;;;;4208151;28;20054;-86
2023/04/23 11:19:15;;;;;;;1.67;1.00;;;;;;;;;;4209010;28;20087;-86
2023/04/23 11:21:59;;;;;;;0.90;0.90;;;;;;;;;;4196606;28;20097;-86
2023/04/23 11:24:21;;;;;;;1.45;1.45;;;;;;;;;;4210348;28;20116;-84
2023/04/23 11:26:42;;;;;;;0.93;0.90;;;;;;;;;;4207999;28;20366;-84
2023/04/23 11:29:03;;;;;;;12.85;1.00;;;;;;;;;;4213845;28;20090;-84
2023/04/23 11:31:23;;;;;;;0.90;0.90;;;;;;;;;;4199626;28;20043;-84
2023/04/23 11:33:44;;;;;;;0.93;0.93;;;;;;;;;;4200415;28;20244;-84
2023/04/23 11:36:05;;;;;;;0.90;0.90;;;;;;;;;;4195978;28;20126;-84
2023/04/23 11:38:32;;;;;;;1.38;1.38;;;;;;;;;;4205261;28;20052;-84
2023/04/23 11:40:52;;;;;;;0.80;0.80;;;;;;;;;;4214598;28;20067;-84
2023/04/23 11:43:18;;;;;;;0.90;0.90;;;;;;;;;;4203374;28;20056;-84
2023/04/23 11:45:39;;;;;;;1.38;1.17;;;;;;;;;;4200472;28;20055;-84
2023/04/23 11:48:00;;;;;;;0.90;0.90;;;;;;;;;;4200314;28;20051;-84
2023/04/23 11:50:21;;;;;;;1.20;0.95;;;;;;;;;;4215737;28;20327;-84
2023/04/23 11:52:43;;;;;;;0.90;0.90;;;;;;;;;;4211111;28;20044;-84
2023/04/23 11:55:06;;;;;;;1.85;1.00;;;;;;;;;;4206611;28;20052;-84
2023/04/23 11:57:26;;;;;;;0.80;0.80;;;;;;;;;;4212762;28;20083;-84
2023/04/23 11:59:47;;;;;;;0.88;0.70;;;;;;;;;;4218426;28;20059;-84
2023/04/23 12:02:07;;;;;;;4.78;1.00;;;;;;;;;;4204396;28;20063;-84
2023/04/23 12:04:29;;;;;;;1.10;1.10;;;;;;;;;;4212662;28;20090;-84
2023/04/23 12:06:50;;;;;;;0.80;0.80;;;;;;;;;;4187251;28;20068;-84
2023/04/23 12:09:11;;;;;;;0.80;0.80;;;;;;;;;;4210941;28;20071;-84
2023/04/23 12:11:31;;;;;;;0.80;0.80;;;;;;;;;;4205979;28;20081;-84
2023/04/23 12:13:52;;;;;;;0.80;0.80;;;;;;;;;;4202129;28;20048;-84
2023/04/23 12:16:13;;;;;;;0.80;0.80;;;;;;;;;;4201625;28;20398;-84
2023/04/23 12:18:36;;;;;;;0.80;0.80;;;;;;;;;;4195934;28;20048;-84
2023/04/23 12:21:04;;;;;;;0.80;0.80;;;;;;;;;;4199428;28;20047;-84
2023/04/23 12:23:28;;;;;;;1.30;1.20;;;;;;;;;;4210763;28;20043;-84
2023/04/23 12:25:48;;;;;;;1.52;1.00;;;;;;;;;;4206168;28;20451;-84
2023/04/23 12:28:09;;;;;;;0.80;0.80;;;;;;;;;;4200062;28;20081;-84
2023/04/23 12:30:29;;;;;;;0.80;0.80;;;;;;;;;;4203887;28;20079;-84
2023/04/23 12:32:50;;;;;;;1.08;1.05;;;;;;;;;;4208250;28;20083;-84
2023/04/23 12:35:11;;;;;;;0.90;0.90;;;;;;;;;;4193302;28;20074;-84
2023/04/23 12:37:35;;;;;;;2.17;0.95;;;;;;;;;;4184625;28;20087;-84
2023/04/23 12:39:58;;;;;;;0.90;0.90;;;;;;;;;;4183610;28;20375;-84
2023/04/23 12:42:18;;;;;;;0.90;0.90;;;;;;;;;;4206544;28;20149;-84
2023/04/23 12:44:38;;;;;;;0.98;0.80;;;;;;;;;;4204597;28;20075;-83
2023/04/23 12:47:02;;;;;;;1.17;0.98;;;;;;;;;;4188307;28;20052;-83
2023/04/23 12:49:22;;;;;;;0.80;0.80;;;;;;;;;;4209306;28;20075;-83
2023/04/23 12:51:43;;;;;;;2.95;0.90;;;;;;;;;;4207137;28;20042;-84
2023/04/23 12:54:03;;;;;;;0.90;0.90;;;;;;;;;;4206897;28;20107;-84
2023/04/23 12:56:23;;;;;;;0.82;0.82;;;;;;;;;;4189143;28;20143;-83
2023/04/23 12:58:43;;;;;;;1.48;0.80;;;;;;;;;;4208114;28;20044;-84
2023/04/23 13:01:03;;;;;;;0.80;0.80;;;;;;;;;;4195729;28;20208;-85
2023/04/23 13:03:24;;;;;;;0.90;0.90;;;;;;;;;;4197991;28;20051;-84
2023/04/23 13:05:46;;;;;;;0.80;0.80;;;;;;;;;;4196286;28;20048;-84
2023/04/23 13:08:07;;;;;;;0.80;0.80;;;;;;;;;;4213491;28;20039;-84
2023/04/23 13:10:29;;;;;;;0.80;0.80;;;;;;;;;;4201456;28;20106;-84
2023/04/23 13:12:49;;;;;;;0.80;0.80;;;;;;;;;;4185319;28;20402;-84
2023/04/23 13:15:11;;;;;;;0.80;0.80;;;;;;;;;;4206815;28;20043;-83
2023/04/23 13:17:31;;;;;;;0.80;0.80;;;;;;;;;;4206696;28;20116;-84
2023/04/23 13:19:53;;;;;;;1.25;0.80;;;;;;;;;;4183946;28;20114;-84
2023/04/23 13:22:13;;;;;;;0.90;0.90;;;;;;;;;;4197078;28;20248;-84
2023/04/23 13:24:33;;;;;;;0.80;0.80;;;;;;;;;;4196249;28;20086;-84
2023/04/23 13:26:53;;;;;;;1.00;1.00;;;;;;;;;;4195398;28;20075;-84
2023/04/23 13:29:13;;;;;;;2.20;1.10;;;;;;;;;;4195742;28;20051;-84
2023/04/23 13:31:34;;;;;;;1.45;0.77;;;;;;;;;;4198011;28;20059;-84
2023/04/23 13:33:55;;;;;;;0.80;0.80;;;;;;;;;;4206708;28;20301;-84
2023/04/23 13:36:15;;;;;;;1.17;0.80;;;;;;;;;;4193675;28;20047;-84
2023/04/23 13:38:35;;;;;;;0.80;0.80;;;;;;;;;;4204771;28;20256;-84
2023/04/23 13:40:56;;;;;;;2.60;0.70;;;;;;;;;;4197447;28;20056;-84
2023/04/23 13:43:16;;;;;;;0.80;0.80;;;;;;;;;;4200806;28;20048;-84
2023/04/23 13:45:37;;;;;;;0.80;0.80;;;;;;;;;;4207459;28;20043;-84
2023/04/23 13:47:57;;;;;;;0.80;0.80;;;;;;;;;;4208140;28;20239;-84
2023/04/23 13:50:17;;;;;;;1.02;0.80;;;;;;;;;;4198442;28;20059;-84
2023/04/23 13:52:38;;;;;;;2.88;0.90;;;;;;;;;;4200898;28;20109;-84
2023/04/23 13:55:01;;;;;;;1.00;1.00;;;;;;;;;;4211025;28;20444;-84
2023/04/23 13:57:22;;;;;;;2.03;1.00;;;;;;;;;;4195605;28;20070;-84
2023/04/23 13:59:42;;;;;;;0.80;0.80;;;;;;;;;;4194131;28;20079;-84
2023/04/23 14:02:03;;;;;;;0.73;0.73;;;;;;;;;;4204057;28;20378;-84
2023/04/23 14:04:23;;;;;;;0.80;0.80;;;;;;;;;;4206390;28;20063;-83
2023/04/23 14:06:45;;;;;;;0.80;0.80;;;;;;;;;;4210873;28;20236;-85
2023/04/23 14:09:05;;;;;;;1.15;0.70;;;;;;;;;;4195801;28;20390;-85